createdAt,value
2023-03-18T00:04:39.033Z,47.84
2023-03-18T00:09:43.287Z,49.62
2023-03-18T00:14:46.436Z,50.67
2023-03-18T00:19:50.243Z,53.29
2023-03-18T00:24:54.819Z,52.60
2023-03-18T00:29:58.661Z,49.81
2023-03-18T00:35:02.289Z,50.12
2023-03-18T00:40:10.592Z,49.51
2023-03-18T00:45:13.543Z,49.88
2023-03-18T00:50:18.020Z,49.91
2023-03-18T00:55:22.862Z,48.68
2023-03-18T01:00:27.114Z,49.69
2023-03-18T01:05:30.447Z,48.60
2023-03-18T01:10:34.811Z,49.11
2023-03-18T01:15:38.726Z,53.14
2023-03-18T01:20:41.630Z,53.53
2023-03-18T01:25:45.988Z,54.89
2023-03-18T01:30:55.301Z,52.68
2023-03-18T01:36:00.312Z,51.98
2023-03-18T01:41:07.471Z,52.96
2023-03-18T01:46:41.314Z,51.80
2023-03-18T01:51:49.257Z,54.78
2023-03-18T01:56:55.809Z,52.47
2023-03-18T02:02:04.583Z,53.17
2023-03-18T02:07:16.617Z,53.42
2023-03-18T02:12:24.922Z,53.41
2023-03-18T02:17:35.417Z,52.49
2023-03-18T02:22:43.676Z,52.96
2023-03-18T02:27:52.197Z,51.80
2023-03-18T02:32:58.958Z,52.89
2023-03-18T02:38:01.977Z,53.13
2023-03-18T02:43:20.173Z,51.96
2023-03-18T02:48:33.739Z,52.30
2023-03-18T02:53:37.203Z,54.47
2023-03-18T02:58:41.943Z,54.74
2023-03-18T03:03:45.767Z,53.72
2023-03-18T03:08:49.766Z,53.67
2023-03-18T03:13:54.586Z,54.17
2023-03-18T03:18:57.544Z,52.72
2023-03-18T03:24:00.746Z,53.26
2023-03-18T03:29:07.029Z,53.41
2023-03-18T03:34:10.762Z,54.81
2023-03-18T03:39:13.650Z,52.88
2023-03-18T03:44:17.916Z,52.03
2023-03-18T03:49:25.218Z,53.23
2023-03-18T03:54:28.369Z,55.19
2023-03-18T03:59:32.742Z,55.24
2023-03-18T04:04:49.310Z,52.41
2023-03-18T04:10:03.063Z,54.31
2023-03-18T04:15:10.991Z,57.01
2023-03-18T04:20:14.830Z,55.76
2023-03-18T04:25:18.084Z,54.78
2023-03-18T04:30:25.590Z,54.40
2023-03-18T04:35:38.664Z,56.33
2023-03-18T04:40:42.825Z,57.12
2023-03-18T04:45:47.338Z,55.24
2023-03-18T04:50:51.580Z,54.39
2023-03-18T04:56:00.346Z,54.64
2023-03-18T05:01:13.192Z,56.11
2023-03-18T05:06:22.974Z,55.42
2023-03-18T05:11:40.447Z,55.52
2023-03-18T05:16:51.940Z,54.00
2023-03-18T05:21:55.766Z,58.67
2023-03-18T05:26:59.153Z,60.04
2023-03-18T05:32:11.507Z,56.15
2023-03-18T05:37:16.008Z,54.82
2023-03-18T05:42:25.232Z,54.93
2023-03-18T05:47:29.780Z,55.76
2023-03-18T05:52:39.084Z,54.75
2023-03-18T05:57:48.730Z,53.95
2023-03-18T06:02:53.982Z,54.55
2023-03-18T06:07:57.949Z,53.52
2023-03-18T06:13:01.222Z,53.35
2023-03-18T06:18:06.087Z,53.29
2023-03-18T06:23:09.136Z,53.09
2023-03-18T06:28:13.005Z,52.49
2023-03-18T06:33:18.320Z,52.69
2023-03-18T06:38:22.427Z,50.96
2023-03-18T06:43:27.081Z,52.61
2023-03-18T06:48:32.966Z,53.33
2023-03-18T06:53:38.689Z,53.12
2023-03-18T06:58:41.897Z,52.46
2023-03-18T07:03:46.908Z,50.96
2023-03-18T07:08:50.950Z,49.46
2023-03-18T07:13:54.156Z,48.77
2023-03-18T07:19:05.676Z,49.91
2023-03-18T07:24:09.004Z,46.36
2023-03-18T07:29:11.939Z,45.72
2023-03-18T07:34:17.811Z,43.87
2023-03-18T07:39:21.037Z,44.11
2023-03-18T07:44:25.195Z,43.73
2023-03-18T07:49:30.101Z,45.50
2023-03-18T07:54:33.100Z,46.73
2023-03-18T07:59:36.579Z,46.33
2023-03-18T08:04:40.928Z,46.27
2023-03-18T08:09:43.843Z,45.76
2023-03-18T08:14:48.254Z,44.89
2023-03-18T08:19:53.333Z,45.62
2023-03-18T08:24:58.119Z,44.39
2023-03-18T08:30:03.488Z,43.97
2023-03-18T08:35:09.841Z,45.00
2023-03-18T08:40:13.981Z,44.66
2023-03-18T08:45:17.197Z,45.76
2023-03-18T08:50:22.899Z,45.98
2023-03-18T08:55:30.922Z,43.91
2023-03-18T09:00:34.950Z,44.12
2023-03-18T09:05:40.325Z,43.31
2023-03-18T09:10:45.674Z,42.30
2023-03-18T09:15:48.657Z,41.47
2023-03-18T09:20:53.654Z,42.41
2023-03-18T09:25:57.223Z,42.67
2023-03-18T09:31:00.288Z,42.65
2023-03-18T09:36:05.297Z,42.33
2023-03-18T09:41:22.196Z,40.87
2023-03-18T09:46:34.091Z,39.80
2023-03-18T09:51:54.315Z,40.39
2023-03-18T09:56:57.422Z,40.33
2023-03-18T10:02:01.790Z,39.42
2023-03-18T10:07:13.143Z,42.61
2023-03-18T10:12:22.042Z,43.92
2023-03-18T10:17:30.273Z,41.10
2023-03-18T10:22:55.703Z,41.21
2023-03-18T10:28:14.071Z,42.17
2023-03-18T10:33:27.644Z,41.51
2023-03-18T10:38:37.109Z,41.75
2023-03-18T10:43:40.986Z,40.31
2023-03-18T10:48:47.117Z,41.20
2023-03-18T10:53:58.764Z,41.23
2023-03-18T10:59:02.069Z,41.16
2023-03-18T11:04:07.893Z,41.02
2023-03-18T11:09:14.321Z,41.44
2023-03-18T11:14:20.997Z,41.67
2023-03-18T11:19:29.798Z,41.84
2023-03-18T11:24:39.588Z,42.61
2023-03-18T11:29:46.807Z,42.24
2023-03-18T11:34:57.265Z,40.64
2023-03-18T11:40:18.506Z,41.76
2023-03-18T11:45:36.970Z,42.49
2023-03-18T11:50:47.310Z,42.56
2023-03-18T11:55:59.489Z,41.99
2023-03-18T12:01:12.179Z,42.86
2023-03-18T12:06:21.236Z,41.99
2023-03-18T12:11:42.265Z,43.06
2023-03-18T12:16:55.940Z,43.61
2023-03-18T12:22:11.842Z,43.58
2023-03-18T12:27:24.937Z,43.62
2023-03-18T12:32:34.952Z,42.94
2023-03-18T12:37:53.672Z,44.05
2023-03-18T12:43:11.227Z,42.40
2023-03-18T12:48:18.558Z,43.25
2023-03-18T12:53:29.814Z,44.36
2023-03-18T12:58:40.776Z,43.10
2023-03-18T13:03:46.202Z,44.35
2023-03-18T13:09:02.735Z,44.42
2023-03-18T13:14:15.253Z,43.86
2023-03-18T13:19:18.896Z,43.40
2023-03-18T13:24:53.955Z,43.38
2023-03-18T13:30:06.192Z,43.62
2023-03-18T13:35:37.537Z,43.98
2023-03-18T13:40:57.248Z,44.14
2023-03-18T13:46:02.404Z,44.48
2023-03-18T13:51:21.822Z,43.56
2023-03-18T13:56:33.195Z,43.54
2023-03-18T14:01:50.720Z,43.17
2023-03-18T14:06:57.191Z,43.35
2023-03-18T14:12:16.849Z,43.07
2023-03-18T14:17:26.877Z,42.15
2023-03-18T14:22:36.392Z,42.73
2023-03-18T14:27:47.250Z,43.68
2023-03-18T14:33:00.530Z,43.13
2023-03-18T14:38:10.725Z,42.29
2023-03-18T14:43:21.281Z,43.25
2023-03-18T14:48:30.537Z,42.71
2023-03-18T14:53:35.544Z,43.34
2023-03-18T14:58:38.444Z,44.00
2023-03-18T15:03:45.935Z,44.30
2023-03-18T15:08:51.398Z,44.85
2023-03-18T15:14:00.069Z,45.27
2023-03-18T15:19:05.238Z,45.35
2023-03-18T15:24:09.693Z,45.62
2023-03-18T15:29:33.491Z,46.06
2023-03-18T15:34:47.235Z,46.26
2023-03-18T15:39:55.673Z,46.31
2023-03-18T15:45:01.650Z,46.81
2023-03-18T15:50:27.214Z,47.04
2023-03-18T15:55:34.565Z,47.74
2023-03-18T16:00:37.805Z,48.00
2023-03-18T16:05:42.111Z,48.19
2023-03-18T16:10:46.771Z,48.42
2023-03-18T16:15:49.838Z,47.96
2023-03-18T16:20:54.273Z,47.80
2023-03-18T16:25:59.071Z,47.31
2023-03-18T16:31:01.998Z,47.67
2023-03-18T16:36:07.648Z,49.86
2023-03-18T16:41:10.577Z,46.89
2023-03-18T16:46:15.426Z,47.24
2023-03-18T16:51:19.774Z,47.01
2023-03-18T16:56:24.076Z,47.07
2023-03-18T17:01:28.078Z,48.15
2023-03-18T17:06:32.429Z,49.33
2023-03-18T17:11:35.386Z,49.77
2023-03-18T17:16:38.598Z,50.19
2023-03-18T17:21:42.886Z,51.28
2023-03-18T17:26:47.361Z,50.08
2023-03-18T17:31:50.404Z,50.62
2023-03-18T17:36:56.482Z,51.37
2023-03-18T17:41:59.375Z,52.33
2023-03-18T17:47:03.087Z,53.31
2023-03-18T17:52:07.551Z,53.88
2023-03-18T17:57:15.539Z,53.88
2023-03-18T18:02:20.310Z,54.07
2023-03-18T18:07:25.452Z,55.05
2023-03-18T18:12:28.701Z,54.02
2023-03-18T18:17:31.589Z,54.10
2023-03-18T18:22:36.000Z,54.98
2023-03-18T18:27:38.866Z,55.87
2023-03-18T18:32:41.841Z,56.08
2023-03-18T18:37:47.561Z,56.46
2023-03-18T18:42:50.533Z,58.83
2023-03-18T18:47:53.446Z,59.96
2023-03-18T18:52:57.765Z,59.73
2023-03-18T18:58:01.279Z,59.15
2023-03-18T19:03:04.239Z,60.93
2023-03-18T19:08:20.409Z,60.65
2023-03-18T19:13:24.581Z,61.04
2023-03-18T19:18:33.681Z,60.98
2023-03-18T19:23:37.982Z,62.66
2023-03-18T19:29:01.379Z,63.57
2023-03-18T19:34:16.194Z,63.54
2023-03-18T19:39:21.976Z,64.28
2023-03-18T19:44:26.456Z,65.05
2023-03-18T19:49:33.276Z,63.63
2023-03-18T19:54:38.053Z,64.83
2023-03-18T19:59:41.205Z,64.34
2023-03-18T20:04:44.173Z,66.08
2023-03-18T20:09:48.920Z,65.18
2023-03-18T20:14:52.500Z,65.38
2023-03-18T20:19:55.759Z,64.81
2023-03-18T20:25:00.765Z,65.59
2023-03-18T20:30:10.508Z,65.50
2023-03-18T20:35:13.838Z,66.36
2023-03-18T20:40:22.994Z,66.17
2023-03-18T20:45:26.165Z,68.13
2023-03-18T20:50:29.916Z,67.68
2023-03-18T20:55:36.028Z,68.23
2023-03-18T21:00:38.994Z,64.61
2023-03-18T21:05:41.886Z,62.79
2023-03-18T21:10:47.127Z,63.50
2023-03-18T21:15:50.187Z,64.89
2023-03-18T21:20:53.860Z,65.30
2023-03-18T21:25:58.219Z,66.62
2023-03-18T21:31:03.067Z,68.34
2023-03-18T21:36:07.443Z,69.12
2023-03-18T21:41:19.816Z,69.25
2023-03-18T21:46:24.615Z,69.27
2023-03-18T21:51:39.047Z,70.19
2023-03-18T21:56:44.336Z,66.78
2023-03-18T22:01:47.326Z,66.29
2023-03-18T22:06:50.268Z,69.01
2023-03-18T22:11:54.531Z,69.49
2023-03-18T22:16:57.457Z,70.61
2023-03-18T22:22:00.411Z,70.18
2023-03-18T22:27:04.919Z,71.04
2023-03-18T22:32:10.232Z,70.65
2023-03-18T22:37:19.963Z,67.15
2023-03-18T22:42:26.777Z,65.97
2023-03-18T22:47:29.684Z,67.32
2023-03-18T22:52:32.815Z,68.21
2023-03-18T22:57:37.092Z,69.80
2023-03-18T23:02:40.037Z,71.08
2023-03-18T23:07:43.044Z,71.11
2023-03-18T23:12:48.077Z,71.47
2023-03-18T23:17:50.988Z,72.42
2023-03-18T23:22:54.779Z,72.09
2023-03-18T23:27:59.013Z,73.72
2023-03-18T23:33:02.087Z,73.48
2023-03-18T23:38:05.780Z,73.28
2023-03-18T23:43:10.119Z,75.13
2023-03-18T23:48:13.023Z,75.99
2023-03-18T23:53:16.186Z,75.85
2023-03-18T23:58:20.585Z,75.48
